createdAt,value
2019-04-22T00:00:04.869Z,9.3
2019-04-22T00:01:19.595Z,9.4
2019-04-22T00:02:13.751Z,9.3
2019-04-22T00:03:15.037Z,9.3
2019-04-22T00:04:29.462Z,9.2
2019-04-22T00:08:29.356Z,9.1
2019-04-22T00:10:19.177Z,9.1
2019-04-22T00:11:24.947Z,9.1
2019-04-22T00:12:13.586Z,9.1
2019-04-22T00:14:11.486Z,9.3
2019-04-22T00:14:52.338Z,9.3
2019-04-22T00:17:21.835Z,9.2
2019-04-22T00:18:42.509Z,9.1
2019-04-22T00:19:35.617Z,8.9
2019-04-22T00:20:04.172Z,8.9
2019-04-22T00:21:19.306Z,9
2019-04-22T00:25:11.691Z,8.9
2019-04-22T00:26:22.259Z,8.9
2019-04-22T00:30:46.782Z,8.6
2019-04-22T00:31:20.518Z,8.4
2019-04-22T00:32:04.809Z,8.2
2019-04-22T00:33:12.858Z,7.9
2019-04-22T00:34:15.700Z,7.8
2019-04-22T00:35:05.531Z,7.8
2019-04-22T00:37:22.628Z,7.7
2019-04-22T00:38:10.656Z,7.6
2019-04-22T00:39:35.538Z,7.5
2019-04-22T00:39:57.104Z,7.5
2019-04-22T00:42:20.691Z,7.4
2019-04-22T00:42:57.814Z,7.4
2019-04-22T00:45:11.444Z,7.3
2019-04-22T00:46:17.390Z,7.3
2019-04-22T00:47:16.182Z,7.2
2019-04-22T00:48:26.947Z,7.2
2019-04-22T00:50:45.844Z,7.1
2019-04-22T00:51:27.731Z,6.9
2019-04-22T00:54:13.463Z,6.9
2019-04-22T00:55:11.732Z,6.9
2019-04-22T00:57:08.526Z,6.8
2019-04-22T00:58:07.836Z,6.8
2019-04-22T01:00:24.508Z,6.7
2019-04-22T01:02:12.924Z,6.7
2019-04-22T01:05:14.769Z,6.6
2019-04-22T01:06:02.791Z,6.5
2019-04-22T01:08:12.693Z,6.4
2019-04-22T01:10:11.428Z,6.4
2019-04-22T01:11:02.839Z,6.5
2019-04-22T01:14:21.495Z,6.4
2019-04-22T01:15:06.879Z,6.5
2019-04-22T01:16:10.646Z,6.4
2019-04-22T01:18:09.146Z,6.4
2019-04-22T01:21:16.001Z,6.6
2019-04-22T01:22:26.298Z,6.6
2019-04-22T01:22:51.728Z,6.7
2019-04-22T01:26:00.386Z,6.6
2019-04-22T01:27:56.814Z,6.7
2019-04-22T01:28:45.766Z,6.7
2019-04-22T01:29:46.224Z,6.7
2019-04-22T01:30:34.690Z,6.7
2019-04-22T01:31:21.737Z,6.7
2019-04-22T01:32:27.192Z,6.6
2019-04-22T01:33:31.033Z,6.6
2019-04-22T01:35:50.597Z,6.4
2019-04-22T01:37:07.443Z,6.5
2019-04-22T01:37:54.028Z,6.5
2019-04-22T01:38:58.035Z,6.5
2019-04-22T01:39:56.741Z,6.4
2019-04-22T01:40:59.589Z,6.5
2019-04-22T01:42:08.990Z,6.5
2019-04-22T01:43:06.786Z,6.6
2019-04-22T01:44:14.146Z,6.6
2019-04-22T01:45:31.090Z,6.6
2019-04-22T01:47:09.916Z,6.6
2019-04-22T01:48:17.444Z,6.6
2019-04-22T01:49:14.518Z,6.8
2019-04-22T01:50:11.740Z,6.8
2019-04-22T01:51:00.608Z,6.8
2019-04-22T01:52:15.129Z,6.9
2019-04-22T01:53:10.234Z,6.9
2019-04-22T01:54:11.951Z,6.9
2019-04-22T01:55:03.737Z,6.8
2019-04-22T01:58:05.505Z,6.9
2019-04-22T01:59:04.735Z,6.9
2019-04-22T01:59:55.970Z,6.9
2019-04-22T02:01:21.911Z,6.9
2019-04-22T02:02:16.015Z,6.9
2019-04-22T02:03:10.116Z,6.9
2019-04-22T02:04:17.067Z,6.9
2019-04-22T02:05:22.645Z,6.9
2019-04-22T02:06:21.712Z,6.9
2019-04-22T02:07:09.159Z,6.9
2019-04-22T02:08:13.018Z,6.9
2019-04-22T02:09:22.277Z,6.8
2019-04-22T02:10:02.046Z,6.8
2019-04-22T02:11:14.047Z,6.8
2019-04-22T02:12:12.715Z,6.8
2019-04-22T02:15:23.151Z,6.8
2019-04-22T02:16:05.495Z,6.8
2019-04-22T02:17:17.270Z,6.8
2019-04-22T02:18:31.423Z,6.8
2019-04-22T02:19:16.955Z,6.8
2019-04-22T02:20:10.228Z,6.8
2019-04-22T02:22:06.917Z,6.8
2019-04-22T02:23:43.769Z,6.6
2019-04-22T02:24:25.940Z,6.4
2019-04-22T02:25:40.760Z,6.4
2019-04-22T02:26:06.969Z,6.4
2019-04-22T02:28:36.307Z,6.3
2019-04-22T02:29:28.607Z,6.3
2019-04-22T02:30:05.109Z,6.4
2019-04-22T02:31:35.500Z,6.5
2019-04-22T02:34:32.314Z,6.4
2019-04-22T02:35:03.294Z,6.5
2019-04-22T02:36:49.969Z,6.5
2019-04-22T02:37:18.441Z,6.5
2019-04-22T02:38:33.706Z,6.4
2019-04-22T02:39:23.459Z,6.4
2019-04-22T02:42:10.406Z,6.1
2019-04-22T02:42:13.619Z,6.1
2019-04-22T02:43:23.253Z,6.2
2019-04-22T02:44:35.288Z,6.1
2019-04-22T02:45:06.816Z,6.1
2019-04-22T02:46:32.202Z,6.1
2019-04-22T02:48:23.566Z,5.6
2019-04-22T02:49:37.058Z,5.6
2019-04-22T02:50:27.857Z,5.5
2019-04-22T02:52:36.646Z,5.6
2019-04-22T02:55:01.194Z,5.4
2019-04-22T02:55:22.553Z,5.4
2019-04-22T02:56:26.728Z,5.4
2019-04-22T02:58:12.286Z,5.4
2019-04-22T02:58:46.533Z,5.4
2019-04-22T02:59:30.686Z,5.6
2019-04-22T03:00:21.238Z,5.6
2019-04-22T03:02:18.705Z,5.4
2019-04-22T03:04:04.242Z,5.3
2019-04-22T03:04:36.936Z,5.2
2019-04-22T03:05:17.398Z,5.1
2019-04-22T03:06:15.212Z,5.1
2019-04-22T03:07:50.324Z,4.9
2019-04-22T03:08:45.331Z,5
2019-04-22T03:09:23.432Z,5.1
2019-04-22T03:10:18.627Z,5.3
2019-04-22T03:12:15.986Z,5.4
2019-04-22T03:13:20.905Z,5.4
2019-04-22T03:15:11.388Z,5.5
2019-04-22T03:16:37.416Z,5.7
2019-04-22T03:17:20.313Z,5.6
2019-04-22T03:18:37.771Z,5.6
2019-04-22T03:19:44.143Z,5.7
2019-04-22T03:20:24.035Z,5.6
2019-04-22T03:21:17.334Z,5.8
2019-04-22T03:22:15.978Z,5.8
2019-04-22T03:24:33.035Z,5.7
2019-04-22T03:26:18.137Z,5.8
2019-04-22T03:26:48.177Z,5.8
2019-04-22T03:27:21.699Z,5.9
2019-04-22T03:29:17.524Z,5.9
2019-04-22T03:30:47.215Z,5.9
2019-04-22T03:31:57.354Z,5.8
2019-04-22T03:33:51.211Z,5.8
2019-04-22T03:35:35.806Z,5.9
2019-04-22T03:35:40.996Z,5.8
2019-04-22T03:37:03.444Z,5.8
2019-04-22T03:39:27.209Z,5.9
2019-04-22T03:39:44.391Z,5.9
2019-04-22T03:43:23.053Z,5.9
2019-04-22T03:44:38.170Z,5.9
2019-04-22T03:46:29.819Z,5.9
2019-04-22T03:47:25.855Z,5.9
2019-04-22T03:50:15.504Z,6
2019-04-22T03:50:27.678Z,6
2019-04-22T03:52:44.329Z,6
2019-04-22T03:54:28.760Z,6
2019-04-22T03:54:51.518Z,6.1
2019-04-22T03:55:28.689Z,6.1
2019-04-22T03:56:55.828Z,6
2019-04-22T03:57:51.750Z,5.9
2019-04-22T03:58:47.717Z,5.9
2019-04-22T04:02:28.625Z,5.8
2019-04-22T04:02:28.626Z,5.8
2019-04-22T04:04:23.708Z,5.7
2019-04-22T04:09:23.562Z,5.8
2019-04-22T04:10:52.582Z,5.8
2019-04-22T04:13:02.603Z,5.5
2019-04-22T04:14:17.926Z,5.3
2019-04-22T04:15:29.762Z,5.3
2019-04-22T04:16:29.654Z,5.3
2019-04-22T04:17:28.620Z,5.1
2019-04-22T04:18:18.518Z,5.1
2019-04-22T04:20:10.323Z,5.1
2019-04-22T04:20:28.289Z,5.2
2019-04-22T04:22:07.649Z,5.2
2019-04-22T04:22:29.920Z,5.2
2019-04-22T04:23:45.679Z,5.3
2019-04-22T04:24:53.282Z,5.1
2019-04-22T04:25:46.359Z,4.9
2019-04-22T04:27:17.999Z,5
2019-04-22T04:28:24.153Z,5.1
2019-04-22T04:30:59.422Z,5.1
2019-04-22T04:31:40.469Z,5
2019-04-22T04:33:15.593Z,5.1
2019-04-22T04:33:46.352Z,5.1
2019-04-22T04:36:05.932Z,5.1
2019-04-22T04:37:40.074Z,5.2
2019-04-22T04:38:59.838Z,5.3
2019-04-22T04:40:11.488Z,5.1
2019-04-22T04:41:41.316Z,4.9
2019-04-22T04:43:52.122Z,5
2019-04-22T04:44:57.628Z,4.9
2019-04-22T04:45:53.939Z,5.1
2019-04-22T04:46:44.245Z,5.1
2019-04-22T04:48:50.879Z,5
2019-04-22T04:50:57.937Z,5
2019-04-22T04:52:26.559Z,5
2019-04-22T04:53:05.855Z,5
2019-04-22T04:53:55.153Z,5.1
2019-04-22T04:54:58.607Z,5.1
2019-04-22T04:55:45.404Z,5.2
2019-04-22T04:56:46.386Z,5.2
2019-04-22T04:57:14.272Z,5.1
2019-04-22T04:59:04.864Z,5.1
2019-04-22T04:59:50.500Z,5.2
2019-04-22T05:01:22.586Z,5.2
2019-04-22T05:01:58.081Z,5.3
2019-04-22T05:02:19.506Z,5.3
2019-04-22T05:03:38.965Z,5.3
2019-04-22T05:04:46.210Z,5.3
2019-04-22T05:06:51.026Z,5.4
2019-04-22T05:07:24.114Z,5.4
2019-04-22T05:11:13.335Z,5.8
2019-04-22T05:12:11.582Z,5.8
2019-04-22T05:12:44.831Z,5.9
2019-04-22T05:14:17.009Z,6.2
2019-04-22T05:15:18.255Z,6.3
2019-04-22T05:16:40.114Z,6.4
2019-04-22T05:17:34.712Z,6.6
2019-04-22T05:18:50.336Z,6.8
2019-04-22T05:19:46.298Z,7.4
2019-04-22T05:20:50.436Z,8.2
2019-04-22T05:21:21.345Z,8.6
2019-04-22T05:22:03.917Z,8.6
2019-04-22T05:23:23.153Z,8.9
2019-04-22T05:24:34.273Z,9.6
2019-04-22T05:25:11.566Z,9.9
2019-04-22T05:26:09.225Z,9.9
2019-04-22T05:27:33.927Z,10.6
2019-04-22T05:28:23.522Z,11.1
2019-04-22T05:29:26.539Z,11.6
2019-04-22T05:30:26.325Z,10.3
2019-04-22T05:31:37.013Z,10.3
2019-04-22T05:31:56.244Z,9.4
2019-04-22T05:35:13.930Z,9.3
2019-04-22T05:37:06.944Z,9.1
2019-04-22T05:39:20.882Z,9.1
2019-04-22T05:40:16.156Z,9.1
2019-04-22T05:41:08.351Z,9
2019-04-22T05:42:08.327Z,8.9
2019-04-22T05:43:13.650Z,9
2019-04-22T05:44:07.814Z,9
2019-04-22T05:44:54.735Z,9
2019-04-22T05:46:02.371Z,9.4
2019-04-22T05:48:00.765Z,10.4
2019-04-22T05:48:58.526Z,11.3
2019-04-22T05:51:00.892Z,12.5
2019-04-22T05:52:55.102Z,13.4
2019-04-22T05:54:07.341Z,13.1
2019-04-22T05:56:37.002Z,13.6
2019-04-22T05:57:09.190Z,13.1
2019-04-22T05:58:14.016Z,13.4
2019-04-22T06:00:12.636Z,13.3
2019-04-22T06:02:23.211Z,12.8
2019-04-22T06:04:05.137Z,12.9
2019-04-22T06:05:09.584Z,12.7
2019-04-22T06:08:10.076Z,12.9
2019-04-22T06:09:03.795Z,12.7
2019-04-22T06:10:09.576Z,12.8
2019-04-22T06:11:31.769Z,12.6
2019-04-22T06:13:00.622Z,12.6
2019-04-22T06:13:55.851Z,12.7
2019-04-22T06:16:17.407Z,12.6
2019-04-22T06:17:37.574Z,12.9
2019-04-22T06:18:26.906Z,12.9
2019-04-22T06:19:18.317Z,13
2019-04-22T06:20:01.992Z,12.9
2019-04-22T06:23:25.393Z,13.5
2019-04-22T06:24:27.107Z,13.6
2019-04-22T06:27:27.600Z,14.6
2019-04-22T06:28:01.733Z,14.9
2019-04-22T06:29:36.392Z,15.1
2019-04-22T06:29:53.128Z,15.2
2019-04-22T06:31:10.203Z,14.8
2019-04-22T06:33:00.621Z,14.9
2019-04-22T06:33:14.478Z,15.4
2019-04-22T06:34:10.151Z,15.3
2019-04-22T06:34:57.860Z,14.5
2019-04-22T06:36:07.890Z,14.3
2019-04-22T06:37:06.869Z,14.3
2019-04-22T06:38:30.036Z,14.3
2019-04-22T06:41:32.868Z,14.3
2019-04-22T06:42:28.119Z,14.4
2019-04-22T06:43:21.561Z,14.8
2019-04-22T06:44:10.616Z,14.8
2019-04-22T06:45:10.557Z,14.8
2019-04-22T06:47:50.808Z,15
2019-04-22T06:48:39.395Z,15.2
2019-04-22T06:49:41.322Z,14.9
2019-04-22T06:49:58.516Z,15.1
2019-04-22T06:51:06.195Z,15.1
2019-04-22T06:53:08.811Z,15.1
2019-04-22T06:54:13.799Z,14.8
2019-04-22T06:56:15.395Z,14.7
2019-04-22T06:57:57.992Z,14.8
2019-04-22T07:00:10.183Z,15.2
2019-04-22T07:02:44.937Z,15.2
2019-04-22T07:05:07.267Z,15.6
2019-04-22T07:06:07.224Z,15.6
2019-04-22T07:06:53.955Z,15.3
2019-04-22T07:08:59.099Z,15.3
2019-04-22T07:09:34.809Z,15.6
2019-04-22T07:13:27.017Z,15.6
2019-04-22T07:14:16.132Z,15.4
2019-04-22T07:15:01.016Z,15.3
2019-04-22T07:18:29.552Z,15.9
2019-04-22T07:19:19.874Z,15.9
2019-04-22T07:21:05.797Z,16.1
2019-04-22T07:23:01.750Z,16.3
2019-04-22T07:25:15.468Z,16.6
2019-04-22T07:27:09.846Z,16.6
2019-04-22T07:28:04.909Z,16.8
2019-04-22T07:30:21.779Z,16.4
2019-04-22T07:30:57.499Z,16.6
2019-04-22T07:32:12.828Z,16.7
2019-04-22T07:33:42.248Z,16.6
2019-04-22T07:35:07.353Z,16.7
2019-04-22T07:36:53.165Z,16.7
2019-04-22T07:37:19.517Z,16.7
2019-04-22T07:38:29.441Z,16.9
2019-04-22T07:39:03.845Z,16.9
2019-04-22T07:41:31.572Z,17.3
2019-04-22T07:43:39.588Z,17.1
2019-04-22T07:44:16.358Z,17.3
2019-04-22T07:45:29.092Z,17.1
2019-04-22T07:46:13.293Z,17.3
2019-04-22T07:47:04.371Z,17.4
2019-04-22T07:48:44.597Z,17.3
2019-04-22T07:49:18.096Z,17.5
2019-04-22T07:50:35.504Z,17.8
2019-04-22T07:51:49.317Z,17.7
2019-04-22T07:54:06.006Z,17.3
2019-04-22T07:55:16.189Z,17
2019-04-22T07:56:04.766Z,17
2019-04-22T07:57:14.684Z,17
2019-04-22T07:58:11.566Z,16.9
2019-04-22T07:59:15.020Z,16.9
2019-04-22T08:00:15.543Z,16.8
2019-04-22T08:02:08.743Z,16.7
2019-04-22T08:03:10.531Z,16.8
2019-04-22T08:04:34.274Z,17
2019-04-22T08:06:11.503Z,17.3
2019-04-22T08:07:03.141Z,17.4
2019-04-22T08:08:25.675Z,17.4
2019-04-22T08:10:36.643Z,17.4
2019-04-22T08:11:49.574Z,17.5
2019-04-22T08:12:09.644Z,17.5
2019-04-22T08:14:14.039Z,17.7
2019-04-22T08:15:12.305Z,17.6
2019-04-22T08:16:09.629Z,17.8
2019-04-22T08:18:27.393Z,17.9
2019-04-22T08:19:19.951Z,18
2019-04-22T08:21:08.943Z,18
2019-04-22T08:22:07.058Z,18
2019-04-22T08:22:57.165Z,18
2019-04-22T08:25:00.119Z,17.8
2019-04-22T08:26:10.985Z,17.6
2019-04-22T08:27:04.296Z,17.8
2019-04-22T08:28:09.997Z,17.8
2019-04-22T08:29:36.663Z,17.8
2019-04-22T08:30:20.184Z,17.9
2019-04-22T08:31:13.364Z,18.1
2019-04-22T08:32:21.540Z,18.2
2019-04-22T08:33:09.200Z,18.1
2019-04-22T08:35:39.224Z,18.3
2019-04-22T08:36:17.313Z,18.7
2019-04-22T08:37:41.257Z,18.9
2019-04-22T08:38:35.275Z,19.1
2019-04-22T08:39:46.875Z,18.6
2019-04-22T08:41:57.016Z,18.7
2019-04-22T08:43:12.416Z,19.1
2019-04-22T08:46:32.881Z,19.4
2019-04-22T08:47:10.635Z,19.3
2019-04-22T08:48:53.883Z,19.7
2019-04-22T08:50:13.479Z,19.7
2019-04-22T08:51:08.362Z,19.4
2019-04-22T08:54:11.495Z,18.7
2019-04-22T08:56:04.446Z,19.1
2019-04-22T08:57:17.896Z,19.2
2019-04-22T08:59:07.795Z,19.4
2019-04-22T08:59:54.220Z,19.5
2019-04-22T09:03:10.204Z,19.8
2019-04-22T09:04:05.565Z,19.8
2019-04-22T09:06:29.463Z,19.1
2019-04-22T09:07:58.496Z,19.1
2019-04-22T09:09:05.895Z,19.6
2019-04-22T09:10:09.812Z,19.6
2019-04-22T09:11:12.980Z,19.6
2019-04-22T09:12:13.876Z,19.6
2019-04-22T09:13:29.644Z,19.6
2019-04-22T09:16:37.130Z,19.5
2019-04-22T09:18:14.082Z,19.6
2019-04-22T09:19:05.304Z,19.6
2019-04-22T09:21:18.239Z,19.3
2019-04-22T09:22:04.307Z,19.4
2019-04-22T09:23:23.391Z,19.9
2019-04-22T09:24:09.919Z,20.1
2019-04-22T09:25:05.451Z,20.1
2019-04-22T09:26:22.560Z,20.1
2019-04-22T09:29:12.239Z,20.1
2019-04-22T09:31:10.923Z,20.3
2019-04-22T09:32:11.110Z,20.4
2019-04-22T09:33:07.676Z,20.3
2019-04-22T09:36:16.003Z,20.5
2019-04-22T09:38:40.884Z,20.6
2019-04-22T09:40:21.540Z,21.2
2019-04-22T09:41:56.908Z,21
2019-04-22T09:43:23.896Z,21.1
2019-04-22T09:44:01.955Z,20.9
2019-04-22T09:45:09.795Z,20.7
2019-04-22T09:45:57.215Z,20.7
2019-04-22T09:48:36.913Z,20.6
2019-04-22T09:49:49.119Z,20.9
2019-04-22T09:50:41.896Z,20.9
2019-04-22T09:51:05.246Z,21.2
2019-04-22T09:53:01.868Z,21.1
2019-04-22T09:54:29.145Z,21.2
2019-04-22T09:55:28.016Z,21.1
2019-04-22T09:56:31.410Z,20.9
2019-04-22T09:56:48.890Z,20.9
2019-04-22T09:58:08.992Z,21.1
2019-04-22T09:59:20.027Z,21.1
2019-04-22T10:00:08.734Z,21.1
2019-04-22T10:01:02.456Z,21.1
2019-04-22T10:02:40.441Z,20.9
2019-04-22T10:03:13.437Z,21.1
2019-04-22T10:04:06.118Z,21.2
2019-04-22T10:05:07.389Z,21.4
2019-04-22T10:06:53.835Z,21.8
2019-04-22T10:09:59.057Z,22.3
2019-04-22T10:10:41.325Z,22.3
2019-04-22T10:11:37.483Z,22.3
2019-04-22T10:14:30.603Z,22
2019-04-22T10:14:59.712Z,21.6
2019-04-22T10:16:10.244Z,21.8
2019-04-22T10:17:17.137Z,21.6
2019-04-22T10:18:08.863Z,21.3
2019-04-22T10:19:16.554Z,21.3
2019-04-22T10:20:16.534Z,21.4
2019-04-22T10:21:14.270Z,21.5
2019-04-22T10:22:31.924Z,21.3
2019-04-22T10:23:57.839Z,20.8
2019-04-22T10:26:21.238Z,21.5
2019-04-22T10:27:20.145Z,21.3
2019-04-22T10:28:08.617Z,21.3
2019-04-22T10:29:10.540Z,21.3
2019-04-22T10:30:21.523Z,21.2
2019-04-22T10:32:23.962Z,21.3
2019-04-22T10:33:09.903Z,21.2
2019-04-22T10:33:49.075Z,21.1
2019-04-22T10:34:31.140Z,21
2019-04-22T10:35:19.721Z,21.3
2019-04-22T10:36:03.755Z,21.6
2019-04-22T10:37:18.044Z,21.4
2019-04-22T10:38:04.108Z,21.4
2019-04-22T10:39:04.389Z,20.9
2019-04-22T10:40:11.440Z,20.9
2019-04-22T10:41:04.980Z,21
2019-04-22T10:42:05.088Z,21.3
2019-04-22T10:43:03.486Z,21.4
2019-04-22T10:44:03.630Z,21.4
2019-04-22T10:45:03.996Z,21.3
2019-04-22T10:46:04.359Z,21.1
2019-04-22T10:47:04.342Z,21.1
2019-04-22T10:48:04.173Z,21.3
2019-04-22T10:49:04.368Z,21.2
2019-04-22T10:50:04.695Z,21.2
2019-04-22T10:51:04.749Z,21.5
2019-04-22T10:52:04.697Z,22.1
2019-04-22T10:53:03.656Z,21.9
2019-04-22T10:54:03.134Z,22
2019-04-22T10:55:03.616Z,22
2019-04-22T10:56:03.361Z,21.9
2019-04-22T10:57:03.941Z,22
2019-04-22T10:58:04.509Z,22.3
2019-04-22T10:59:04.903Z,22.3
2019-04-22T11:00:05.060Z,22.5
2019-04-22T11:01:05.549Z,22.8
2019-04-22T11:02:03.703Z,22.8
2019-04-22T11:03:04.324Z,22.6
2019-04-22T11:04:03.599Z,22.1
2019-04-22T11:05:04.162Z,22.1
2019-04-22T11:06:03.604Z,22.3
2019-04-22T11:07:13.122Z,22.2
2019-04-22T11:08:14.898Z,22.3
2019-04-22T11:09:08.397Z,22.4
2019-04-22T11:10:54.080Z,22.5
2019-04-22T11:11:38.333Z,22.4
2019-04-22T11:12:21.295Z,22.3
2019-04-22T11:13:03.162Z,22.1
2019-04-22T11:14:08.690Z,22.3
2019-04-22T11:15:03.646Z,22
2019-04-22T11:16:03.533Z,22.1
2019-04-22T11:17:08.850Z,21.8
2019-04-22T11:18:03.368Z,21.8
2019-04-22T11:19:03.677Z,22.1
2019-04-22T11:20:03.945Z,22.1
2019-04-22T11:21:03.392Z,21.8
2019-04-22T11:22:22.747Z,21.5
2019-04-22T11:23:04.817Z,21.6
2019-04-22T11:24:05.215Z,21.5
2019-04-22T11:25:03.758Z,21.4
2019-04-22T11:26:04.027Z,21.8
2019-04-22T11:27:04.903Z,22.4
2019-04-22T11:28:05.771Z,22.8
2019-04-22T11:29:03.756Z,22.1
2019-04-22T11:30:05.771Z,21.9
2019-04-22T11:31:03.835Z,22
2019-04-22T11:32:04.441Z,21.9
2019-04-22T11:33:04.690Z,21.9
2019-04-22T11:34:03.254Z,22
2019-04-22T11:35:03.903Z,21.9
2019-04-22T11:36:03.974Z,21.9
2019-04-22T11:37:03.434Z,22.4
2019-04-22T11:38:04.753Z,21.8
2019-04-22T11:39:12.882Z,21.6
2019-04-22T11:40:31.761Z,21.6
2019-04-22T11:41:05.850Z,21.6
2019-04-22T11:42:04.672Z,21.6
2019-04-22T11:43:04.145Z,21.8
2019-04-22T11:44:03.361Z,21.8
2019-04-22T11:45:03.743Z,21.8
2019-04-22T11:46:03.405Z,21.8
2019-04-22T11:47:03.557Z,21.8
2019-04-22T11:48:03.762Z,22.1
2019-04-22T11:49:03.891Z,22.1
2019-04-22T11:50:03.898Z,21.9
2019-04-22T11:51:04.546Z,22
2019-04-22T11:52:10.841Z,22.7
2019-04-22T11:53:04.905Z,22.5
2019-04-22T11:54:05.306Z,22.4
2019-04-22T11:55:04.660Z,23
2019-04-22T11:56:04.924Z,22.6
2019-04-22T11:57:05.620Z,22.6
2019-04-22T11:58:03.856Z,23
2019-04-22T11:59:04.973Z,22.5
2019-04-22T12:00:05.047Z,22.8
2019-04-22T12:01:03.621Z,22.7
2019-04-22T12:02:04.894Z,22.6
2019-04-22T12:03:05.356Z,22.8
2019-04-22T12:04:04.199Z,22.8
2019-04-22T12:05:03.966Z,22.6
2019-04-22T12:06:04.162Z,22.4
2019-04-22T12:07:06.024Z,22.4
2019-04-22T12:08:05.138Z,21.9
2019-04-22T12:09:04.003Z,22.3
2019-04-22T12:10:35.614Z,22.4
2019-04-22T12:11:08.263Z,22.8
2019-04-22T12:12:03.627Z,22.9
2019-04-22T12:13:04.050Z,23.3
2019-04-22T12:14:04.177Z,23.6
2019-04-22T12:15:04.285Z,23.3
2019-04-22T12:16:03.499Z,23.3
2019-04-22T12:17:03.756Z,23.3
2019-04-22T12:18:03.848Z,23.2
2019-04-22T12:19:03.330Z,22.6
2019-04-22T12:20:12.249Z,22.6
2019-04-22T12:21:03.736Z,22.3
2019-04-22T12:22:04.930Z,22.2
2019-04-22T12:23:03.381Z,22.6
2019-04-22T12:24:03.606Z,22.7
2019-04-22T12:25:04.272Z,22.8
2019-04-22T12:26:16.793Z,22.6
2019-04-22T12:27:04.477Z,22.3
2019-04-22T12:28:05.379Z,22.3
2019-04-22T12:29:04.877Z,22.5
2019-04-22T12:30:03.238Z,22.8
2019-04-22T12:31:03.948Z,22.9
2019-04-22T12:32:03.507Z,23.3
2019-04-22T12:33:10.920Z,23.2
2019-04-22T12:34:03.835Z,23.2
2019-04-22T12:35:03.540Z,23.1
2019-04-22T12:36:02.513Z,23.3
2019-04-22T12:37:02.811Z,23.3
2019-04-22T12:38:12.369Z,0
2019-04-22T12:39:03.518Z,0
2019-04-22T12:40:04.247Z,0
2019-04-22T12:41:06.706Z,0
2019-04-22T12:42:04.309Z,0
2019-04-22T12:43:04.595Z,0
2019-04-22T12:44:03.443Z,0
2019-04-22T12:45:04.283Z,0
2019-04-22T12:46:03.398Z,0
2019-04-22T12:47:05.362Z,0
2019-04-22T12:48:04.208Z,0
2019-04-22T12:49:04.423Z,0
2019-04-22T12:50:12.180Z,0
2019-04-22T12:51:03.062Z,0
2019-04-22T12:52:03.138Z,0
2019-04-22T12:53:09.190Z,0
2019-04-22T12:54:03.485Z,0
2019-04-22T12:55:03.894Z,0
2019-04-22T12:56:03.042Z,0
2019-04-22T12:57:03.999Z,0
2019-04-22T12:58:03.405Z,0
2019-04-22T12:59:03.807Z,0
2019-04-22T13:00:03.694Z,0
2019-04-22T13:01:03.266Z,0
2019-04-22T13:02:04.885Z,0
2019-04-22T13:03:03.194Z,0
2019-04-22T13:04:09.065Z,0
2019-04-22T13:05:04.062Z,0
2019-04-22T13:06:03.878Z,0
2019-04-22T13:07:03.893Z,0
2019-04-22T13:08:03.734Z,0
2019-04-22T13:09:04.185Z,0
2019-04-22T13:10:03.988Z,0
2019-04-22T13:11:10.138Z,0
2019-04-22T13:12:03.569Z,0
2019-04-22T13:13:04.880Z,0
2019-04-22T13:14:04.945Z,0
2019-04-22T13:15:05.732Z,0
2019-04-22T13:16:04.687Z,0
2019-04-22T13:17:04.000Z,0
2019-04-22T13:18:11.537Z,0
2019-04-22T13:20:03.358Z,0
2019-04-22T13:21:02.660Z,0
2019-04-22T13:22:04.922Z,0
2019-04-22T13:23:03.981Z,0
2019-04-22T13:24:02.940Z,0
2019-04-22T13:25:04.006Z,0
2019-04-22T13:26:05.035Z,0
2019-04-22T13:27:03.271Z,0
2019-04-22T13:28:02.969Z,0
2019-04-22T13:29:05.080Z,22.2
2019-04-22T13:30:06.088Z,22.3
2019-04-22T13:31:03.792Z,22.6
2019-04-22T13:32:04.721Z,22.8
2019-04-22T13:33:03.141Z,22.8
2019-04-22T13:34:03.976Z,22.8
2019-04-22T13:35:03.986Z,23.1
2019-04-22T13:36:03.738Z,23
2019-04-22T13:37:03.282Z,22.4
2019-04-22T13:38:02.976Z,22.4
2019-04-22T13:39:03.051Z,22.4
2019-04-22T13:40:03.562Z,22.2
2019-04-22T13:41:14.513Z,22.3
2019-04-22T13:42:06.053Z,22.3
2019-04-22T13:43:03.008Z,22.1
2019-04-22T13:44:04.933Z,22.1
2019-04-22T13:45:04.107Z,22.3
2019-04-22T13:46:03.887Z,22.3
2019-04-22T13:47:19.535Z,22.6
2019-04-22T13:48:21.733Z,22.5
2019-04-22T13:49:30.789Z,22.5
2019-04-22T13:50:42.269Z,22.6
2019-04-22T13:55:23.682Z,22.3
2019-04-22T13:56:18.415Z,22.2
2019-04-22T13:57:19.550Z,22.2
2019-04-22T13:58:13.911Z,22.1
2019-04-22T13:59:13.425Z,22.3
2019-04-22T14:01:04.915Z,22.6
2019-04-22T14:02:04.367Z,22.7
2019-04-22T14:03:02.683Z,22.8
2019-04-22T14:04:02.935Z,22.8
2019-04-22T14:05:04.278Z,22.8
2019-04-22T14:06:04.900Z,22.9
2019-04-22T14:07:04.947Z,22.9
2019-04-22T14:08:04.782Z,22.7
2019-04-22T14:09:03.484Z,22.5
2019-04-22T14:10:04.402Z,22.5
2019-04-22T14:11:11.733Z,22.3
2019-04-22T14:12:05.655Z,22.3
2019-04-22T14:13:03.842Z,22.6
2019-04-22T14:14:02.970Z,22.6
2019-04-22T14:15:04.245Z,22.6
2019-04-22T14:16:04.676Z,22.6
2019-04-22T14:17:03.225Z,0
2019-04-22T14:18:04.880Z,0
2019-04-22T14:19:03.447Z,0
2019-04-22T14:20:04.676Z,0
2019-04-22T14:21:04.938Z,0
2019-04-22T14:22:03.981Z,0
2019-04-22T14:23:05.974Z,0
2019-04-22T14:24:04.909Z,0
2019-04-22T14:25:02.978Z,0
2019-04-22T14:26:04.977Z,0
2019-04-22T14:27:14.884Z,0
2019-04-22T14:28:07.777Z,0
2019-04-22T14:29:04.097Z,22.4
2019-04-22T14:30:03.005Z,22.7
2019-04-22T14:31:04.356Z,22.7
2019-04-22T14:32:11.050Z,22.6
2019-04-22T14:33:03.169Z,22.6
2019-04-22T14:34:05.188Z,22.6
2019-04-22T14:35:04.960Z,22.8
2019-04-22T14:36:04.728Z,22.6
2019-04-22T14:37:03.549Z,22.6
2019-04-22T14:38:04.188Z,22.6
2019-04-22T14:39:03.915Z,22.5
2019-04-22T14:40:07.491Z,22.6
2019-04-22T14:41:03.283Z,22.6
2019-04-22T14:42:21.441Z,22.8
2019-04-22T14:43:24.508Z,22.8
2019-04-22T14:45:04.572Z,23
2019-04-22T14:45:27.918Z,23
2019-04-22T14:46:26.248Z,22.9
2019-04-22T14:47:25.535Z,22.9
2019-04-22T14:48:17.214Z,22.9
2019-04-22T14:49:28.065Z,22.9
2019-04-22T14:50:21.656Z,23.1
2019-04-22T14:51:20.344Z,22.9
2019-04-22T14:52:27.498Z,22.8
2019-04-22T14:53:20.530Z,22.8
2019-04-22T14:54:18.046Z,22.9
2019-04-22T14:55:10.012Z,22.8
2019-04-22T14:56:04.354Z,23
2019-04-22T14:57:03.345Z,23.1
2019-04-22T14:58:02.914Z,23.1
2019-04-22T14:59:05.066Z,23
2019-04-22T15:00:04.149Z,23.1
2019-04-22T15:01:03.892Z,23.2
2019-04-22T15:02:03.503Z,23
2019-04-22T15:03:03.890Z,23.1
2019-04-22T15:04:03.209Z,23.1
2019-04-22T15:05:03.830Z,23
2019-04-22T15:06:04.181Z,23
2019-04-22T15:07:03.448Z,23.1
2019-04-22T15:08:03.669Z,23.1
2019-04-22T15:09:03.794Z,23.1
2019-04-22T15:10:04.094Z,23
2019-04-22T15:11:04.478Z,22.9
2019-04-22T15:12:14.685Z,22.7
2019-04-22T15:13:03.420Z,22.8
2019-04-22T15:14:03.696Z,22.8
2019-04-22T15:15:03.817Z,23.1
2019-04-22T15:16:03.574Z,23.1
2019-04-22T15:17:04.745Z,23
2019-04-22T15:18:03.198Z,22.9
2019-04-22T15:19:04.087Z,22.9
2019-04-22T15:20:03.787Z,22.8
2019-04-22T15:21:03.091Z,22.8
2019-04-22T15:22:04.916Z,0
2019-04-22T15:23:04.605Z,0
2019-04-22T15:24:04.564Z,0
2019-04-22T15:25:04.840Z,0
2019-04-22T15:26:04.555Z,0
2019-04-22T15:27:04.639Z,0
2019-04-22T15:28:03.701Z,0
2019-04-22T15:29:03.376Z,0
2019-04-22T15:30:03.696Z,0
2019-04-22T15:31:03.707Z,0
2019-04-22T15:32:03.525Z,0
2019-04-22T15:33:03.355Z,0
2019-04-22T15:34:04.472Z,0
2019-04-22T15:35:02.977Z,0
2019-04-22T15:36:03.647Z,0
2019-04-22T15:37:04.256Z,0
2019-04-22T15:38:04.468Z,0
2019-04-22T15:39:03.073Z,0
2019-04-22T15:40:04.605Z,0
2019-04-22T15:41:04.962Z,0
2019-04-22T15:42:11.475Z,0
2019-04-22T15:43:04.696Z,0
2019-04-22T15:44:03.684Z,0
2019-04-22T15:45:05.295Z,0
2019-04-22T15:46:03.897Z,0
2019-04-22T15:47:02.921Z,0
2019-04-22T15:48:04.162Z,0
2019-04-22T15:49:04.175Z,0
2019-04-22T15:50:03.921Z,0
2019-04-22T15:51:04.785Z,0
2019-04-22T15:52:04.577Z,0
2019-04-22T15:53:04.535Z,0
2019-04-22T15:54:03.700Z,0
2019-04-22T15:55:04.769Z,0
2019-04-22T15:56:03.344Z,0
2019-04-22T15:57:04.510Z,0
2019-04-22T15:58:03.875Z,0
2019-04-22T15:59:17.152Z,0
2019-04-22T16:00:18.042Z,0
2019-04-22T16:01:12.605Z,0
2019-04-22T16:02:04.432Z,0
2019-04-22T16:03:04.788Z,0
2019-04-22T16:04:03.199Z,0
2019-04-22T16:05:04.388Z,0
2019-04-22T16:06:03.981Z,0
2019-04-22T16:07:05.046Z,0
2019-04-22T16:08:03.387Z,0
2019-04-22T16:09:03.432Z,0
2019-04-22T16:10:03.792Z,0
2019-04-22T16:11:04.065Z,0
2019-04-22T16:12:13.426Z,0
2019-04-22T16:13:07.093Z,0
2019-04-22T16:14:04.251Z,0
2019-04-22T16:15:05.130Z,0
2019-04-22T16:16:04.683Z,0
2019-04-22T16:17:04.326Z,0
2019-04-22T16:18:05.177Z,0
2019-04-22T16:19:04.439Z,0
2019-04-22T16:20:03.628Z,0
2019-04-22T16:21:04.602Z,0
2019-04-22T16:22:07.492Z,0
2019-04-22T16:23:03.447Z,0
2019-04-22T16:24:02.772Z,0
2019-04-22T16:25:04.748Z,0
2019-04-22T16:26:03.332Z,0
2019-04-22T16:27:04.499Z,0
2019-04-22T16:28:03.324Z,0
2019-04-22T16:29:03.436Z,0
2019-04-22T16:30:03.670Z,0
2019-04-22T16:31:03.758Z,0
2019-04-22T16:32:03.160Z,0
2019-04-22T16:33:03.489Z,0
2019-04-22T16:34:04.528Z,0
2019-04-22T16:35:04.369Z,0
2019-04-22T16:36:02.882Z,0